Time;durP1;ratioP1;P1;durP2;ratioP2;P2;SDS_P1;SDS_P2;PMS_P1;PMS_P2;Temp;Humidity;BMP_temperature;BMP_pressure;BME280_temperature;BME280_humidity;BME280_pressure;Samples;Min_cycle;Max_cycle;Signal;HPM_P1;HPM_P2
2022/01/28 00:00:12;;;;;;;3.50;1.10;;;;;;;4.52;77.12;99446.72;1707020;82;21656;-78
2022/01/28 00:05:22;;;;;;;1.25;0.78;;;;;;;4.52;77.12;99448.45;1710811;83;21151;-78
2022/01/28 00:07:53;;;;;;;1.85;1.10;;;;;;;4.53;77.07;99443.72;1712242;83;21847;-78
2022/01/28 00:10:21;;;;;;;0.65;0.60;;;;;;;4.54;77.08;99442.86;1707680;83;21433;-77
2022/01/28 00:13:05;;;;;;;2.85;0.78;;;;;;;4.53;76.98;99452.84;1707882;83;21093;-76
2022/01/28 00:15:33;;;;;;;2.25;0.90;;;;;;;4.54;77.14;99444.16;1704962;83;21522;-77
2022/01/28 00:36:26;;;;;;;1.05;0.70;;;;;;;4.50;77.01;99445.80;1708879;83;21809;-76
2022/01/28 00:39:35;;;;;;;1.82;0.72;;;;;;;4.36;77.07;99449.33;1708542;83;21080;-77
2022/01/28 00:42:01;;;;;;;3.22;1.32;;;;;;;4.35;77.12;99447.55;1707417;83;21576;-76
2022/01/28 00:44:28;;;;;;;3.22;1.30;;;;;;;4.32;77.10;99442.27;1712454;83;22253;-77
2022/01/28 00:46:55;;;;;;;2.37;1.50;;;;;;;4.31;77.06;99443.52;1710078;83;22416;-76
2022/01/28 00:49:22;;;;;;;2.90;1.10;;;;;;;4.29;77.15;99449.55;1700909;82;21123;-77
2022/01/28 00:51:49;;;;;;;2.77;1.72;;;;;;;4.28;77.16;99446.50;1686931;83;21109;-77
2022/01/28 00:54:18;;;;;;;3.98;2.05;;;;;;;4.27;77.19;99457.74;1673773;83;21233;-77
2022/01/28 00:56:45;;;;;;;2.47;1.50;;;;;;;4.26;77.21;99462.91;1698593;83;21104;-77
2022/01/28 00:59:12;;;;;;;2.65;1.47;;;;;;;4.25;77.23;99458.55;1696508;83;21798;-77
2022/01/28 01:01:39;;;;;;;1.27;1.10;;;;;;;4.25;77.18;99457.25;1687397;83;21088;-77
2022/01/28 01:04:06;;;;;;;1.00;0.72;;;;;;;4.22;77.21;99454.54;1695114;83;21140;-77
2022/01/28 01:06:33;;;;;;;0.82;0.62;;;;;;;4.20;77.22;99457.09;1694781;83;21527;-77
2022/01/28 01:09:00;;;;;;;1.45;1.12;;;;;;;4.19;77.25;99457.08;1698960;83;21108;-77
2022/01/28 01:11:27;;;;;;;1.52;1.10;;;;;;;4.16;77.18;99460.87;1695342;83;22494;-77
2022/01/28 01:13:54;;;;;;;1.20;0.90;;;;;;;4.12;77.21;99457.72;1706965;83;21113;-77
2022/01/28 01:16:29;;;;;;;0.88;0.75;;;;;;;4.06;77.28;99467.11;1691482;83;21061;-77
2022/01/28 01:18:56;;;;;;;1.42;1.02;;;;;;;4.06;77.46;99461.03;1693631;83;21205;-77
2022/01/28 01:21:23;;;;;;;3.35;1.02;;;;;;;4.07;77.54;99464.08;1693863;83;21116;-77
2022/01/28 01:23:52;;;;;;;1.27;1.00;;;;;;;4.09;77.66;99473.72;1697807;83;21751;-77
2022/01/28 01:26:18;;;;;;;3.40;1.22;;;;;;;4.12;77.73;99477.25;1695055;83;21207;-77
2022/01/28 01:28:46;;;;;;;0.85;0.65;;;;;;;4.14;77.77;99478.19;1695359;83;21749;-77
2022/01/28 01:31:16;;;;;;;1.27;0.90;;;;;;;4.15;77.84;99474.33;1691246;83;21148;-77
2022/01/28 01:33:49;;;;;;;1.15;0.70;;;;;;;4.15;77.80;99478.62;1694642;83;21622;-77
2022/01/28 01:36:10;;;;;;;1.22;0.70;;;;;;;4.15;77.94;99479.53;1698137;83;21720;-76
2022/01/28 01:38:39;;;;;;;0.80;0.53;;;;;;;4.18;78.00;99478.73;1695068;83;21163;-76
2022/01/28 01:41:11;;;;;;;1.30;0.90;;;;;;;4.19;78.08;99486.59;1701216;83;21129;-77
2022/01/28 01:54:28;;;;;;;0.90;0.70;;;;;;;4.25;78.45;99510.22;1679597;84;21124;-77
2022/01/28 01:56:55;;;;;;;2.67;1.00;;;;;;;4.26;78.53;99512.39;1695954;82;21310;-77
2022/01/28 01:59:22;;;;;;;1.85;0.80;;;;;;;4.26;78.58;99517.20;1717508;82;21097;-77
2022/01/28 02:01:48;;;;;;;1.02;0.80;;;;;;;4.28;78.69;99523.77;1714958;83;21734;-77
2022/01/28 02:04:15;;;;;;;2.27;0.85;;;;;;;4.31;78.78;99524.27;1716677;83;21069;-76
2022/01/28 02:06:42;;;;;;;2.98;1.40;;;;;;;4.33;78.90;99527.80;1719858;81;21100;-77
2022/01/28 02:09:08;;;;;;;6.53;1.30;;;;;;;4.35;79.00;99530.03;1713795;83;21192;-77
2022/01/28 02:11:35;;;;;;;2.50;1.20;;;;;;;4.39;79.17;99535.41;1717233;83;21081;-78
2022/01/28 02:14:02;;;;;;;2.87;1.32;;;;;;;4.44;79.31;99536.40;1715082;82;21771;-78
2022/01/28 02:16:29;;;;;;;1.70;0.90;;;;;;;4.48;79.42;99547.38;1720739;83;21104;-77
2022/01/28 02:18:59;;;;;;;3.37;1.42;;;;;;;4.52;79.53;99543.56;1716407;83;21691;-77
2022/01/28 02:21:24;;;;;;;5.40;1.55;;;;;;;4.56;79.64;99541.52;1710394;83;21113;-76
2022/01/28 02:23:57;;;;;;;3.45;1.10;;;;;;;4.58;79.67;99541.13;1722381;83;21324;-77
2022/01/28 02:26:19;;;;;;;3.08;1.32;;;;;;;4.60;79.70;99549.91;1726613;82;21774;-77
2022/01/28 02:28:50;;;;;;;3.87;1.22;;;;;;;4.62;79.80;99554.31;1716450;83;21700;-77
2022/01/28 02:31:20;;;;;;;2.42;0.93;;;;;;;4.64;79.86;99556.98;1720515;81;21096;-77
2022/01/28 02:33:42;;;;;;;3.67;1.60;;;;;;;4.64;79.81;99564.80;1711955;83;21888;-77
2022/01/28 02:36:09;;;;;;;3.45;1.10;;;;;;;4.62;79.87;99561.27;1728756;82;21119;-77
2022/01/28 02:38:36;;;;;;;2.60;1.00;;;;;;;4.61;79.90;99569.47;1698025;83;21729;-77
2022/01/28 02:41:04;;;;;;;4.55;1.52;;;;;;;4.61;79.91;99571.20;1714079;81;21076;-77
2022/01/28 02:43:58;;;;;;;2.58;1.20;;;;;;;4.61;79.93;99581.20;1690473;83;21062;-77
2022/01/28 02:46:18;;;;;;;3.75;1.20;;;;;;;4.59;79.95;99588.52;1726396;81;21202;-78
2022/01/28 02:48:49;;;;;;;3.45;1.40;;;;;;;4.60;79.98;99587.70;1690143;83;21202;-77
2022/01/28 02:51:15;;;;;;;3.47;1.25;;;;;;;4.60;80.03;99594.22;1714271;83;22672;-75
2022/01/28 02:53:49;;;;;;;1.70;0.85;;;;;;;4.59;80.04;99597.64;1695971;83;21088;-77
2022/01/28 02:56:19;;;;;;;1.77;0.75;;;;;;;4.58;79.95;99599.38;1730226;81;21068;-77
2022/01/28 02:58:42;;;;;;;2.20;0.80;;;;;;;4.56;79.86;99604.96;1698514;82;21788;-77
2022/01/28 03:01:08;;;;;;;3.17;0.70;;;;;;;4.54;79.87;99613.13;1721761;81;21078;-77
2022/01/28 03:03:35;;;;;;;1.47;0.70;;;;;;;4.51;79.89;99618.69;1721507;82;21740;-77
2022/01/28 03:06:02;;;;;;;1.07;0.72;;;;;;;4.47;79.87;99622.48;1727157;82;21554;-77
2022/01/28 03:08:30;;;;;;;0.98;0.70;;;;;;;4.43;79.90;99636.27;1730699;82;21084;-76
2022/01/28 03:16:16;;;;;;;1.20;0.70;;;;;;;4.37;79.92;99658.62;1732045;81;21772;-76
2022/01/28 03:18:55;;;;;;;1.77;0.70;;;;;;;4.34;79.91;99667.66;1715117;82;21091;-76
2022/01/28 03:21:22;;;;;;;1.92;0.60;;;;;;;4.30;79.72;99677.09;1720772;82;21067;-77
2022/01/28 03:23:45;;;;;;;1.15;0.60;;;;;;;4.18;79.67;99686.66;1729883;82;21127;-77
2022/01/28 03:26:13;;;;;;;1.45;0.42;;;;;;;4.09;79.75;99692.86;1735597;81;21660;-76
2022/01/28 03:28:40;;;;;;;1.65;0.47;;;;;;;4.03;79.77;99705.69;1715283;82;21753;-76
2022/01/28 03:31:07;;;;;;;2.50;0.75;;;;;;;3.96;79.84;99708.91;1696013;82;21456;-77
2022/01/28 03:33:34;;;;;;;1.62;0.65;;;;;;;3.95;79.98;99720.17;1721888;81;21146;-77
2022/01/28 03:36:08;;;;;;;1.05;0.60;;;;;;;3.92;79.91;99730.04;1734843;81;21258;-77
2022/01/28 03:38:34;;;;;;;2.58;0.85;;;;;;;3.88;79.92;99738.16;1721172;81;21692;-77
2022/01/28 03:41:00;;;;;;;1.65;0.60;;;;;;;3.82;79.79;99753.98;1720394;82;22551;-77
2022/01/28 03:43:27;;;;;;;0.78;0.60;;;;;;;3.76;80.16;99757.68;1718601;82;21383;-78
2022/01/28 03:45:54;;;;;;;0.68;0.60;;;;;;;3.75;80.45;99776.72;1721170;82;21239;-77
2022/01/28 03:48:20;;;;;;;0.62;0.57;;;;;;;3.71;80.41;99790.03;1721118;82;21028;-77
2022/01/28 03:50:50;;;;;;;0.68;0.53;;;;;;;3.65;80.28;99784.61;1715012;81;21079;-77
2022/01/28 03:53:16;;;;;;;0.75;0.40;;;;;;;3.63;80.18;99797.55;1719122;81;21725;-77
2022/01/28 03:55:42;;;;;;;1.52;0.40;;;;;;;3.61;80.19;99804.84;1708108;82;21072;-78
2022/01/28 03:58:12;;;;;;;0.30;0.30;;;;;;;3.60;80.04;99823.45;1717020;83;21341;-84
2022/01/28 04:00:40;;;;;;;0.60;0.47;;;;;;;3.49;79.92;99827.36;1711386;81;21130;-78
2022/01/28 04:03:37;;;;;;;1.45;0.65;;;;;;;3.38;80.00;99836.46;1703521;81;21646;-78
2022/01/28 04:11:24;;;;;;;0.72;0.50;;;;;;;3.34;80.28;99834.19;1699064;83;22578;-78
2022/01/28 04:13:35;;;;;;;0.80;0.40;;;;;;;3.22;80.19;99861.88;1712285;82;21138;-77
2022/01/28 04:16:27;;;;;;;1.10;0.70;;;;;;;3.16;80.23;99873.34;1705747;82;21074;-77
2022/01/28 04:18:33;;;;;;;0.40;0.40;;;;;;;3.11;80.16;99867.05;1707706;83;21783;-78
2022/01/28 04:21:00;;;;;;;0.75;0.60;;;;;;;3.05;80.14;99886.31;1704176;83;21091;-78
2022/01/28 04:23:26;;;;;;;0.80;0.57;;;;;;;3.01;80.31;99885.30;1695806;83;21110;-79
2022/01/28 04:25:53;;;;;;;1.25;0.50;;;;;;;2.97;80.15;99892.50;1721738;81;21082;-77
2022/01/28 04:28:20;;;;;;;0.90;0.65;;;;;;;2.87;80.29;99902.02;1710685;81;21079;-78
2022/01/28 04:30:47;;;;;;;1.17;0.65;;;;;;;2.77;80.47;99912.44;1710933;83;22651;-78
2022/01/28 04:33:14;;;;;;;1.45;0.70;;;;;;;2.74;80.60;99926.63;1714640;81;21899;-78
2022/01/28 04:35:41;;;;;;;1.30;0.70;;;;;;;2.67;80.58;99921.56;1714271;82;21150;-79
2022/01/28 04:38:26;;;;;;;3.33;0.75;;;;;;;2.62;80.65;99924.78;1712649;83;21697;-79
2022/01/28 04:40:50;;;;;;;2.65;0.75;;;;;;;2.57;80.73;99931.48;1716496;83;21078;-78
2022/01/28 04:43:15;;;;;;;0.90;0.80;;;;;;;2.53;80.87;99939.16;1701479;83;21833;-80
2022/01/28 04:45:56;;;;;;;1.37;0.60;;;;;;;2.49;80.88;99941.53;1709000;82;21106;-77
2022/01/28 04:48:29;;;;;;;0.90;0.70;;;;;;;2.49;81.05;99959.30;1715335;82;21166;-77
2022/01/28 05:01:25;;;;;;;2.27;0.90;;;;;;;2.43;81.39;99995.40;1720590;83;21435;-77
2022/01/28 05:25:16;;;;;;;2.08;1.00;;;;;;;2.20;82.83;100072.67;1707748;83;21351;-85
2022/01/28 05:27:15;;;;;;;2.67;1.17;;;;;;;2.16;82.93;100079.42;1711997;81;21067;-86
2022/01/28 05:29:41;;;;;;;1.55;1.17;;;;;;;2.19;83.09;100091.64;1719387;83;21718;-84
2022/01/28 05:32:09;;;;;;;2.72;1.22;;;;;;;2.21;83.12;100109.06;1716211;83;21098;-81
2022/01/28 05:34:37;;;;;;;2.30;1.07;;;;;;;2.19;83.11;100118.49;1721669;82;21727;-78
2022/01/28 05:37:04;;;;;;;1.07;0.98;;;;;;;2.12;83.01;100125.11;1725215;82;22065;-80
2022/01/28 05:39:31;;;;;;;1.40;0.88;;;;;;;2.07;83.12;100136.09;1724976;83;21109;-90
2022/01/28 05:42:01;;;;;;;4.53;1.25;;;;;;;2.02;83.19;100159.63;1723812;82;21117;-91
2022/01/28 05:44:31;;;;;;;1.47;0.90;;;;;;;1.94;83.14;100155.35;1707871;83;21114;-90
2022/01/28 05:47:02;;;;;;;2.33;1.10;;;;;;;1.93;83.44;100165.23;1712730;83;21821;-93
2022/01/28 05:49:28;;;;;;;3.25;1.10;;;;;;;1.88;83.45;100175.81;1711961;82;21131;-75
2022/01/28 05:51:55;;;;;;;2.47;1.42;;;;;;;1.83;83.60;100181.17;1711761;82;21113;-73
2022/01/28 05:54:21;;;;;;;1.67;1.10;;;;;;;1.83;84.10;100196.74;1708748;82;21688;-76
2022/01/28 05:56:48;;;;;;;4.22;1.40;;;;;;;1.79;84.35;100195.69;1706893;83;21135;-73
2022/01/28 05:59:14;;;;;;;4.92;1.80;;;;;;;1.78;84.46;100203.39;1706759;81;21840;-73
2022/01/28 06:01:41;;;;;;;2.45;1.20;;;;;;;1.78;84.42;100217.66;1711002;83;21080;-73
2022/01/28 06:04:08;;;;;;;3.55;1.60;;;;;;;1.76;84.43;100230.55;1710391;82;21577;-73
2022/01/28 06:06:34;;;;;;;2.52;1.20;;;;;;;1.74;84.55;100228.28;1716271;81;21062;-76
2022/01/28 06:09:02;;;;;;;1.92;1.30;;;;;;;1.77;84.72;100254.82;1716365;83;21158;-77
2022/01/28 06:11:28;;;;;;;4.15;1.40;;;;;;;1.77;84.71;100262.61;1695299;83;21791;-74
2022/01/28 06:13:55;;;;;;;3.80;1.65;;;;;;;1.77;84.67;100269.09;1704433;83;21687;-79
2022/01/28 06:16:22;;;;;;;1.62;1.10;;;;;;;1.74;84.76;100271.10;1709215;82;21190;-76
2022/01/28 06:18:48;;;;;;;3.50;1.47;;;;;;;1.72;84.80;100294.36;1705294;83;21573;-75
2022/01/28 06:21:16;;;;;;;2.50;1.20;;;;;;;1.69;85.15;100299.80;1722943;82;21123;-74
2022/01/28 06:23:43;;;;;;;4.90;1.50;;;;;;;1.65;85.46;100303.05;1706563;83;22495;-74
2022/01/28 06:26:10;;;;;;;6.65;1.55;;;;;;;1.61;86.03;100308.47;1698611;83;21126;-73
2022/01/28 06:28:37;;;;;;;3.30;1.30;;;;;;;1.62;86.28;100317.17;1693390;83;21130;-75
2022/01/28 06:31:03;;;;;;;4.08;1.70;;;;;;;1.60;86.18;100323.98;1698543;83;21217;-75
2022/01/28 06:33:30;;;;;;;3.35;1.65;;;;;;;1.56;86.01;100325.52;1711060;82;21098;-74
2022/01/28 06:35:57;;;;;;;4.78;1.77;;;;;;;1.53;86.10;100335.30;1721538;82;21767;-74
2022/01/28 06:38:23;;;;;;;5.08;1.80;;;;;;;1.55;86.33;100344.46;1706125;83;21820;-74
2022/01/28 06:40:50;;;;;;;2.83;1.62;;;;;;;1.55;86.28;100344.46;1708732;83;21648;-74
2022/01/28 06:43:16;;;;;;;3.72;1.75;;;;;;;1.54;86.24;100344.00;1717309;81;21087;-74
2022/01/28 06:45:43;;;;;;;5.00;1.90;;;;;;;1.55;86.37;100348.35;1697843;82;21086;-74
2022/01/28 06:48:11;;;;;;;3.22;1.62;;;;;;;1.59;86.52;100364.56;1702515;83;22288;-74
2022/01/28 06:50:42;;;;;;;7.95;1.90;;;;;;;1.62;86.47;100366.45;1695554;83;21582;-74
2022/01/28 06:53:12;;;;;;;4.75;2.10;;;;;;;1.63;86.46;100382.08;1712524;83;21572;-75
2022/01/28 06:55:38;;;;;;;3.20;1.67;;;;;;;1.65;86.52;100383.09;1684031;83;21284;-75
2022/01/28 06:58:04;;;;;;;5.90;1.80;;;;;;;1.62;86.30;100396.30;1705574;82;21127;-74
2022/01/28 07:00:37;;;;;;;3.37;1.52;;;;;;;1.61;86.31;100400.56;1695974;83;21869;-74
2022/01/28 07:03:05;;;;;;;2.92;1.95;;;;;;;1.62;86.23;100408.85;1718132;83;21165;-74
2022/01/28 07:05:31;;;;;;;5.72;1.95;;;;;;;1.66;86.16;100422.47;1717969;83;21127;-74
2022/01/28 07:07:58;;;;;;;8.98;2.17;;;;;;;1.68;86.12;100431.23;1710497;83;21590;-74
2022/01/28 07:10:25;;;;;;;6.25;2.08;;;;;;;1.71;86.11;100414.96;1719608;83;21101;-75
2022/01/28 07:12:54;;;;;;;4.60;2.00;;;;;;;1.74;86.10;100439.77;1712725;83;22973;-75
2022/01/28 07:15:21;;;;;;;6.20;1.60;;;;;;;1.77;86.08;100454.63;1700079;83;21191;-75
2022/01/28 07:17:48;;;;;;;7.75;2.20;;;;;;;1.78;86.25;100446.02;1716440;82;21116;-75
2022/01/28 07:20:17;;;;;;;6.78;1.95;;;;;;;1.77;86.10;100449.02;1720504;83;21374;-75
2022/01/28 07:22:43;;;;;;;3.20;1.87;;;;;;;1.75;86.04;100456.72;1730558;82;21131;-74
2022/01/28 07:25:11;;;;;;;5.95;1.65;;;;;;;1.75;85.99;100460.61;1688978;83;21094;-74
2022/01/28 07:27:39;;;;;;;4.12;1.70;;;;;;;1.74;86.08;100472.20;1719703;83;21076;-75
2022/01/28 07:30:07;;;;;;;5.25;1.77;;;;;;;1.84;86.02;100485.27;1713137;83;21107;-74
2022/01/28 07:32:34;;;;;;;6.22;1.90;;;;;;;1.88;85.92;100500.23;1713391;83;21578;-74
2022/01/28 07:35:01;;;;;;;5.37;2.20;;;;;;;1.88;85.83;100504.13;1716822;82;21132;-75
2022/01/28 07:37:27;;;;;;;4.70;2.20;;;;;;;1.85;85.61;100513.91;1714863;83;21728;-74
2022/01/28 07:39:55;;;;;;;6.25;2.45;;;;;;;1.85;85.66;100531.20;1716760;83;21186;-75
2022/01/28 07:42:22;;;;;;;5.17;2.33;;;;;;;1.89;85.59;100525.36;1715222;83;21080;-75
2022/01/28 07:44:49;;;;;;;4.45;1.98;;;;;;;1.90;85.57;100539.73;1717048;83;21084;-75
2022/01/28 07:47:15;;;;;;;8.05;2.83;;;;;;;1.91;85.49;100532.41;1717979;83;21092;-74
2022/01/28 07:49:42;;;;;;;5.85;2.62;;;;;;;1.89;85.30;100550.02;1715047;81;22577;-74
2022/01/28 07:52:09;;;;;;;5.40;2.10;;;;;;;1.92;85.29;100556.69;1716710;83;21101;-74
2022/01/28 07:54:35;;;;;;;18.35;2.70;;;;;;;1.97;85.29;100566.02;1712573;82;21074;-74
2022/01/28 07:57:02;;;;;;;3.52;1.90;;;;;;;2.06;85.26;100579.52;1711319;83;21637;-74
2022/01/28 07:59:29;;;;;;;5.72;1.90;;;;;;;2.10;85.02;100577.20;1716636;83;21072;-75
2022/01/28 08:01:56;;;;;;;5.45;2.20;;;;;;;2.10;84.46;100600.57;1716687;83;22618;-74
2022/01/28 08:04:22;;;;;;;5.12;2.60;;;;;;;2.15;84.63;100593.02;1716633;83;21627;-75
2022/01/28 08:06:49;;;;;;;5.60;2.05;;;;;;;2.28;84.72;100626.66;1716616;82;21160;-74
2022/01/28 08:09:16;;;;;;;5.70;1.75;;;;;;;2.39;84.61;100629.87;1714438;83;21081;-74
2022/01/28 08:11:45;;;;;;;4.78;2.05;;;;;;;2.44;84.35;100621.94;1715704;83;21336;-75
2022/01/28 08:14:11;;;;;;;4.28;2.17;;;;;;;2.47;84.36;100635.07;1715368;83;22557;-75
2022/01/28 08:16:38;;;;;;;5.05;2.35;;;;;;;2.40;84.06;100646.34;1709191;83;21651;-75
2022/01/28 08:19:04;;;;;;;6.78;2.05;;;;;;;2.28;84.04;100647.44;1714681;83;21548;-75
2022/01/28 08:21:31;;;;;;;7.35;2.47;;;;;;;2.27;84.04;100636.58;1712603;83;21080;-75
2022/01/28 08:23:58;;;;;;;5.78;2.65;;;;;;;2.30;84.06;100658.80;1716588;83;21578;-75
2022/01/28 08:26:24;;;;;;;5.03;2.65;;;;;;;2.37;84.21;100661.77;1716710;83;21682;-75
2022/01/28 08:28:51;;;;;;;6.25;2.47;;;;;;;2.44;84.35;100676.87;1716738;83;21069;-74
2022/01/28 08:31:17;;;;;;;4.72;2.80;;;;;;;2.51;84.33;100678.59;1715488;83;22386;-75
2022/01/28 08:33:44;;;;;;;4.35;2.20;;;;;;;2.57;84.31;100701.84;1714661;83;21058;-75
2022/01/28 08:36:11;;;;;;;6.67;2.90;;;;;;;2.59;83.96;100688.53;1712732;83;21081;-74
2022/01/28 08:38:44;;;;;;;5.20;2.10;;;;;;;2.61;83.89;100696.00;1714870;83;21933;-74
2022/01/28 08:41:11;;;;;;;4.45;1.98;;;;;;;2.63;83.60;100706.11;1696223;83;21080;-74
2022/01/28 08:43:38;;;;;;;4.28;2.20;;;;;;;2.67;83.69;100726.26;1707147;83;21077;-74
2022/01/28 08:46:04;;;;;;;5.80;2.55;;;;;;;2.71;83.43;100716.52;1715328;83;21165;-74
2022/01/28 08:48:31;;;;;;;5.47;2.33;;;;;;;2.80;83.61;100710.53;1714103;83;21544;-74
2022/01/28 08:50:58;;;;;;;5.30;1.98;;;;;;;2.94;83.62;100724.70;1719079;83;21810;-74
2022/01/28 08:53:24;;;;;;;6.08;2.62;;;;;;;3.07;83.49;100732.36;1712270;83;21112;-74
2022/01/28 08:55:51;;;;;;;5.20;2.45;;;;;;;3.16;83.27;100741.97;1713384;83;21099;-74
2022/01/28 08:58:18;;;;;;;6.80;2.92;;;;;;;3.21;83.13;100742.20;1719589;83;21080;-74
2022/01/28 09:00:47;;;;;;;4.67;2.40;;;;;;;3.25;82.91;100735.08;1712695;83;21197;-74
2022/01/28 09:03:15;;;;;;;7.95;2.67;;;;;;;3.32;82.77;100755.38;1704509;84;21775;-73
2022/01/28 09:05:42;;;;;;;7.87;2.22;;;;;;;3.31;82.05;100757.09;1700427;83;21184;-74
2022/01/28 09:08:09;;;;;;;3.55;2.17;;;;;;;3.38;82.03;100775.63;1700538;84;21086;-74
2022/01/28 09:10:38;;;;;;;3.27;2.10;;;;;;;3.46;82.14;100773.06;1700851;84;21133;-74
2022/01/28 09:15:33;;;;;;;3.95;2.27;;;;;;;3.56;81.85;100791.36;1693829;83;21769;-74
2022/01/28 09:17:59;;;;;;;4.42;1.98;;;;;;;3.62;81.59;100837.23;1699315;84;21105;-74
2022/01/28 09:20:26;;;;;;;3.27;1.67;;;;;;;3.61;80.89;100811.61;1698003;84;21038;-74
2022/01/28 09:22:52;;;;;;;4.90;1.70;;;;;;;3.58;80.38;100806.64;1692853;84;21711;-74
2022/01/28 09:25:19;;;;;;;4.97;2.00;;;;;;;3.56;80.10;100814.78;1696696;83;21101;-74
2022/01/28 09:27:46;;;;;;;6.28;1.90;;;;;;;3.52;80.08;100831.05;1700371;83;21719;-74
2022/01/28 09:30:12;;;;;;;5.33;2.00;;;;;;;3.48;80.19;100823.48;1696634;84;21546;-74
2022/01/28 09:32:39;;;;;;;5.83;2.12;;;;;;;3.42;79.89;100844.86;1689737;84;21113;-74
2022/01/28 09:35:06;;;;;;;5.72;1.72;;;;;;;3.45;80.11;100837.23;1696670;83;21089;-74
2022/01/28 09:37:34;;;;;;;5.80;1.98;;;;;;;3.47;80.18;100841.19;1700452;84;21095;-74
2022/01/28 09:40:01;;;;;;;5.33;1.90;;;;;;;3.49;80.04;100835.66;1696658;83;21767;-74
2022/01/28 09:42:29;;;;;;;6.70;2.33;;;;;;;3.56;80.36;100852.11;1704689;84;21034;-74
2022/01/28 09:44:55;;;;;;;4.65;1.92;;;;;;;3.70;80.20;100861.58;1701083;84;21093;-74
2022/01/28 09:47:22;;;;;;;5.03;1.87;;;;;;;3.91;80.20;100867.87;1704287;84;21104;-74
2022/01/28 09:49:49;;;;;;;5.92;2.30;;;;;;;4.02;79.52;100860.22;1704390;84;21145;-74
2022/01/28 09:52:15;;;;;;;4.58;2.25;;;;;;;4.05;79.58;100859.98;1700556;83;22505;-74
2022/01/28 09:54:46;;;;;;;4.75;2.42;;;;;;;4.06;79.26;100864.35;1712357;82;21100;-74
2022/01/28 09:57:11;;;;;;;4.12;2.00;;;;;;;4.11;79.32;100870.20;1704530;83;21249;-74
2022/01/28 09:59:38;;;;;;;3.65;2.05;;;;;;;4.12;78.98;100883.32;1708561;83;21140;-74
2022/01/28 10:02:05;;;;;;;4.05;2.10;;;;;;;3.96;78.94;100886.83;1712892;83;21117;-75
2022/01/28 10:04:32;;;;;;;3.72;2.05;;;;;;;3.75;78.94;100893.05;1708813;83;22577;-74
2022/01/28 10:06:58;;;;;;;7.12;1.52;;;;;;;3.61;79.54;100911.83;1712113;83;21133;-74
2022/01/28 10:09:25;;;;;;;4.37;1.87;;;;;;;3.54;79.79;100900.58;1701789;83;21062;-74
2022/01/28 10:11:56;;;;;;;5.28;1.90;;;;;;;3.54;80.06;100909.69;1707951;83;21141;-74
2022/01/28 10:14:23;;;;;;;7.15;1.92;;;;;;;3.47;80.03;100914.05;1712277;83;21336;-74
2022/01/28 10:16:58;;;;;;;4.33;2.12;;;;;;;3.41;80.53;100928.03;1712409;83;22203;-74
2022/01/28 10:19:39;;;;;;;6.42;2.00;;;;;;;3.47;81.23;100921.86;1712075;83;21112;-74
2022/01/28 10:22:17;;;;;;;6.00;1.95;;;;;;;3.59;81.51;100925.58;1712395;83;21116;-73
2022/01/28 10:24:45;;;;;;;3.70;1.70;;;;;;;3.57;81.38;100949.33;1712815;83;21603;-73
2022/01/28 10:27:14;;;;;;;3.25;1.50;;;;;;;3.57;81.25;100942.41;1712822;83;21101;-74
2022/01/28 10:29:42;;;;;;;4.67;1.80;;;;;;;3.64;80.83;100954.96;1704840;83;21827;-74
2022/01/28 10:32:14;;;;;;;3.02;1.75;;;;;;;3.65;80.62;100933.72;1712324;83;21100;-74
2022/01/28 10:34:47;;;;;;;2.52;1.27;;;;;;;3.75;80.77;100965.06;1669320;83;21150;-74
2022/01/28 10:37:30;;;;;;;2.43;1.37;;;;;;;3.82;80.12;100952.47;1705757;83;21148;-74
2022/01/28 10:40:09;;;;;;;3.20;1.40;;;;;;;3.73;80.85;100984.50;1706289;83;21583;-74
2022/01/28 10:42:48;;;;;;;1.65;0.95;;;;;;;3.59;80.56;100970.72;1708131;83;21763;-74
2022/01/28 10:45:16;;;;;;;4.35;1.75;;;;;;;3.53;79.95;100990.28;1707697;83;21124;-74
2022/01/28 10:47:48;;;;;;;3.65;1.80;;;;;;;3.54;80.22;100995.58;1712636;83;21502;-74
2022/01/28 10:50:30;;;;;;;6.78;1.42;;;;;;;3.58;80.21;100992.33;1712524;82;21790;-74
2022/01/28 10:53:07;;;;;;;3.42;1.45;;;;;;;3.57;80.09;101006.17;1704266;83;21129;-73
2022/01/28 10:55:57;;;;;;;4.37;1.42;;;;;;;3.65;80.21;100984.07;1701905;82;21982;-74
2022/01/28 10:58:25;;;;;;;2.02;1.05;;;;;;;3.72;80.46;101000.03;1704181;82;21184;-74
2022/01/28 11:00:57;;;;;;;5.72;1.57;;;;;;;3.72;79.95;101023.45;1696826;84;21706;-74
2022/01/28 11:03:27;;;;;;;4.50;1.35;;;;;;;3.59;79.87;101041.00;1704580;84;21389;-74
2022/01/28 11:05:59;;;;;;;2.95;1.30;;;;;;;3.51;80.09;101052.68;1677398;84;21096;-74
2022/01/28 11:08:27;;;;;;;3.72;1.15;;;;;;;3.26;80.24;101038.20;1700318;84;21756;-76
2022/01/28 11:10:54;;;;;;;3.30;1.60;;;;;;;2.90;80.21;101038.22;1700708;84;21048;-75
2022/01/28 11:13:20;;;;;;;4.33;1.72;;;;;;;2.70;81.21;101029.20;1704564;84;21688;-75
2022/01/28 11:15:47;;;;;;;3.33;1.45;;;;;;;2.61;81.75;101030.86;1700365;83;21196;-75
2022/01/28 11:18:14;;;;;;;4.03;1.90;;;;;;;2.60;82.01;101039.86;1704485;84;21105;-74
2022/01/28 11:20:49;;;;;;;3.40;2.27;;;;;;;2.73;82.79;101048.48;1700335;84;22595;-74
2022/01/28 11:23:33;;;;;;;4.20;1.72;;;;;;;2.88;82.49;101056.73;1696879;84;21061;-75
2022/01/28 11:26:44;;;;;;;2.92;1.52;;;;;;;2.96;82.04;101050.28;1700638;84;21164;-74
2022/01/28 11:29:25;;;;;;;4.55;1.40;;;;;;;3.07;81.98;101050.52;1700498;84;21094;-74
2022/01/28 11:31:57;;;;;;;5.58;1.22;;;;;;;3.16;81.42;101086.61;1704067;84;21086;-74
2022/01/28 11:34:31;;;;;;;1.92;0.90;;;;;;;3.23;81.24;101075.77;1701109;84;22513;-74
2022/01/28 11:37:06;;;;;;;5.37;1.15;;;;;;;3.28;80.57;101068.22;1698089;84;21667;-74
2022/01/28 11:39:38;;;;;;;3.55;1.07;;;;;;;3.39;80.79;101073.66;1699421;84;21081;-74
2022/01/28 11:42:18;;;;;;;3.92;1.35;;;;;;;3.49;79.88;101074.70;1704650;84;21635;-74
2022/01/28 11:44:57;;;;;;;2.87;1.42;;;;;;;3.56;79.90;101090.26;1699742;84;22440;-74
2022/01/28 11:47:30;;;;;;;6.08;1.52;;;;;;;3.59;79.67;101097.38;1700529;82;21755;-74
2022/01/28 11:50:17;;;;;;;3.42;2.02;;;;;;;3.56;79.74;101107.18;1690193;84;21700;-74
2022/01/28 11:52:46;;;;;;;7.53;2.20;;;;;;;3.59;79.90;101153.34;1704261;84;21131;-74
2022/01/28 11:55:23;;;;;;;3.65;1.80;;;;;;;3.44;79.80;101129.89;1700588;84;21525;-74
2022/01/28 11:58:11;;;;;;;3.35;1.72;;;;;;;3.18;80.82;101143.52;1700412;84;22201;-74
2022/01/28 12:00:41;;;;;;;3.60;1.50;;;;;;;2.85;84.39;101148.83;1697187;82;21664;-74
2022/01/28 12:03:20;;;;;;;6.20;2.00;;;;;;;2.53;85.73;101168.12;1671259;84;21164;-74
2022/01/28 12:05:50;;;;;;;5.15;2.35;;;;;;;2.41;86.91;101155.63;1701105;84;21129;-75
2022/01/28 12:08:18;;;;;;;7.08;2.72;;;;;;;2.37;87.87;101171.82;1704445;84;22107;-75
2022/01/28 12:10:46;;;;;;;6.25;2.45;;;;;;;2.38;88.46;101174.02;1700518;84;21082;-75
2022/01/28 12:13:17;;;;;;;5.22;2.55;;;;;;;2.38;88.34;101176.20;1704052;84;21794;-74
2022/01/28 12:16:13;;;;;;;6.20;2.50;;;;;;;2.38;87.43;101173.59;1700499;84;21423;-74
2022/01/28 12:18:54;;;;;;;5.00;2.45;;;;;;;2.40;87.24;101178.90;1704337;84;21042;-74
2022/01/28 12:21:31;;;;;;;9.13;2.42;;;;;;;2.41;86.66;101199.80;1702864;84;21730;-74
2022/01/28 12:24:24;;;;;;;7.58;2.60;;;;;;;2.44;86.19;101201.67;1700420;84;21194;-75
2022/01/28 12:27:13;;;;;;;5.95;2.05;;;;;;;2.47;85.92;101232.66;1696744;84;22582;-74
2022/01/28 12:29:46;;;;;;;5.78;1.95;;;;;;;2.54;85.92;101205.39;1704405;82;21624;-74
2022/01/28 12:32:12;;;;;;;7.85;1.90;;;;;;;2.59;84.82;101222.56;1680191;84;21198;-74
2022/01/28 12:34:43;;;;;;;5.37;1.80;;;;;;;2.62;83.88;101215.86;1700622;83;21149;-74
2022/01/28 12:37:10;;;;;;;7.58;1.92;;;;;;;2.64;83.68;101218.16;1696644;84;21067;-74
2022/01/28 12:39:43;;;;;;;4.30;1.72;;;;;;;2.67;82.91;101235.67;1696720;83;23012;-74
2022/01/28 12:42:23;;;;;;;5.03;1.90;;;;;;;2.71;82.12;101222.95;1699668;84;21136;-74
2022/01/28 12:44:40;;;;;;;5.37;1.75;;;;;;;2.80;82.03;101243.86;1700535;84;21208;-74
2022/01/28 12:47:10;;;;;;;7.30;2.05;;;;;;;2.81;80.77;101245.23;1699221;83;21061;-74
2022/01/28 12:49:38;;;;;;;6.00;1.80;;;;;;;2.83;80.11;101234.94;1704499;84;21101;-74
2022/01/28 12:52:07;;;;;;;4.85;1.82;;;;;;;2.82;79.84;101252.25;1694632;84;21822;-74
2022/01/28 12:54:45;;;;;;;5.53;1.80;;;;;;;2.84;79.23;101261.45;1707571;82;21575;-74
2022/01/28 12:57:13;;;;;;;4.78;1.82;;;;;;;2.84;78.88;101262.75;1708450;83;21088;-74
2022/01/28 12:59:42;;;;;;;3.83;1.50;;;;;;;2.85;78.62;101268.05;1708564;83;21128;-74
2022/01/28 13:02:08;;;;;;;5.50;1.50;;;;;;;2.86;78.50;101275.45;1698899;83;21069;-74